Time;durP1;ratioP1;P1;durP2;ratioP2;P2;SDS_P1;SDS_P2;PMS_P1;PMS_P2;Temp;Humidity;BMP_temperature;BMP_pressure;BME280_temperature;BME280_humidity;BME280_pressure;Samples;Min_cycle;Max_cycle;Signal;HPM_P1;HPM_P2
2021/04/18 00:00:19;;;;;;;4.75;2.45;;;11.90;41.90;;;;;;1496818;39;20027;-51
2021/04/18 00:01:40;;;;;;;3.95;2.45;;;11.90;42.00;;;;;;1496303;39;20370;-51
2021/04/18 00:03:01;;;;;;;5.47;3.17;;;11.90;41.90;;;;;;1495244;39;20023;-53
2021/04/18 00:04:22;;;;;;;5.15;2.80;;;11.90;41.90;;;;;;1495013;39;20063;-51
2021/04/18 00:05:43;;;;;;;4.50;2.65;;;11.80;42.00;;;;;;1494495;39;20047;-54
2021/04/18 00:07:04;;;;;;;3.47;2.50;;;11.80;42.10;;;;;;1496645;39;20034;-54
2021/04/18 00:08:25;;;;;;;4.72;2.85;;;11.80;42.20;;;;;;1498635;39;20035;-52
2021/04/18 00:09:46;;;;;;;4.55;2.70;;;11.80;42.30;;;;;;1498492;39;20344;-54
2021/04/18 00:11:07;;;;;;;5.03;2.88;;;11.80;42.40;;;;;;1494994;39;20112;-50
2021/04/18 00:12:27;;;;;;;4.90;2.60;;;11.70;42.60;;;;;;1498967;39;20042;-49
2021/04/18 00:13:48;;;;;;;3.65;2.88;;;11.80;42.70;;;;;;1496287;39;20510;-52
2021/04/18 00:15:12;;;;;;;6.80;2.80;;;11.80;42.70;;;;;;1497309;39;20081;-51
2021/04/18 00:16:34;;;;;;;3.95;2.70;;;11.70;42.80;;;;;;1499841;39;20416;-51
2021/04/18 00:17:55;;;;;;;4.05;2.80;;;11.70;42.90;;;;;;1493120;39;20027;-49
2021/04/18 00:19:16;;;;;;;3.40;2.97;;;11.70;42.90;;;;;;1493947;39;20035;-51
2021/04/18 00:20:38;;;;;;;4.20;2.50;;;11.70;43.00;;;;;;1498867;39;20035;-50
2021/04/18 00:21:59;;;;;;;5.22;2.78;;;11.70;43.10;;;;;;1498282;39;20031;-53
2021/04/18 00:23:20;;;;;;;4.65;3.00;;;11.60;43.10;;;;;;1497955;39;20035;-49
2021/04/18 00:24:41;;;;;;;4.00;2.70;;;11.60;43.20;;;;;;1499238;39;20042;-49
2021/04/18 00:26:02;;;;;;;3.33;2.67;;;11.60;43.20;;;;;;1495537;39;20019;-51
2021/04/18 00:27:23;;;;;;;4.57;3.13;;;11.60;43.30;;;;;;1496495;39;20043;-50
2021/04/18 00:28:44;;;;;;;4.25;2.78;;;11.60;43.30;;;;;;1493920;39;20032;-53
2021/04/18 00:30:10;;;;;;;4.53;2.85;;;11.50;43.30;;;;;;1498468;39;20027;-52
2021/04/18 00:31:31;;;;;;;5.95;3.75;;;11.50;43.50;;;;;;1500040;39;20322;-53
2021/04/18 00:32:53;;;;;;;5.25;2.90;;;11.50;43.30;;;;;;1496172;39;20027;-50
2021/04/18 00:34:14;;;;;;;6.15;3.40;;;11.50;43.90;;;;;;1494775;39;20315;-52
2021/04/18 00:35:35;;;;;;;5.63;2.90;;;11.50;43.30;;;;;;1491897;39;20026;-54
2021/04/18 00:36:55;;;;;;;4.00;3.13;;;11.40;43.20;;;;;;1495586;39;20039;-51
2021/04/18 00:38:16;;;;;;;3.50;3.13;;;11.40;43.30;;;;;;1499833;39;20030;-50
2021/04/18 00:39:37;;;;;;;3.20;2.55;;;11.40;43.30;;;;;;1498707;39;20026;-54
2021/04/18 00:40:58;;;;;;;4.60;3.10;;;11.40;43.30;;;;;;1495784;39;20023;-52
2021/04/18 00:42:19;;;;;;;4.32;2.83;;;11.40;43.30;;;;;;1498061;39;20029;-50
2021/04/18 00:43:45;;;;;;;4.38;3.00;;;11.30;43.30;;;;;;1491153;39;20544;-53
2021/04/18 00:45:08;;;;;;;4.97;3.08;;;11.30;43.40;;;;;;1494082;39;20030;-50
2021/04/18 00:46:29;;;;;;;4.65;3.10;;;11.30;43.40;;;;;;1491993;39;20043;-53
2021/04/18 00:47:52;;;;;;;4.93;3.10;;;11.30;43.40;;;;;;1494238;39;20043;-54
2021/04/18 00:49:13;;;;;;;3.45;2.97;;;11.30;43.50;;;;;;1494889;39;20071;-55
2021/04/18 00:50:37;;;;;;;5.22;3.05;;;11.20;43.40;;;;;;1495670;39;20034;-50
2021/04/18 00:51:57;;;;;;;3.45;2.85;;;11.20;43.50;;;;;;1498937;39;20041;-53
2021/04/18 00:53:18;;;;;;;6.53;3.38;;;11.20;43.50;;;;;;1499646;39;20039;-54
2021/04/18 00:54:39;;;;;;;3.90;3.00;;;11.20;44.00;;;;;;1500690;39;20033;-52
2021/04/18 00:56:00;;;;;;;4.47;2.95;;;11.20;43.60;;;;;;1495959;39;20481;-53
2021/04/18 00:57:21;;;;;;;4.15;3.05;;;11.20;43.60;;;;;;1496282;39;20023;-54
2021/04/18 00:58:42;;;;;;;4.00;3.20;;;11.10;43.60;;;;;;1494003;39;20040;-51
2021/04/18 01:00:07;;;;;;;3.22;2.85;;;11.10;43.70;;;;;;1498343;39;20031;-54
2021/04/18 01:01:28;;;;;;;5.32;3.28;;;11.10;43.90;;;;;;1496705;39;20042;-52
2021/04/18 01:02:49;;;;;;;5.57;3.15;;;11.10;43.80;;;;;;1497644;39;20031;-50
2021/04/18 01:04:10;;;;;;;3.65;2.80;;;11.10;43.80;;;;;;1496452;39;20011;-52
2021/04/18 01:05:31;;;;;;;5.10;3.10;;;11.00;43.80;;;;;;1490265;39;20019;-51
2021/04/18 01:06:53;;;;;;;6.80;3.20;;;11.00;43.80;;;;;;1496732;39;20386;-50
2021/04/18 01:08:13;;;;;;;5.80;3.28;;;11.00;43.80;;;;;;1498621;39;20042;-49
2021/04/18 01:09:35;;;;;;;5.75;3.22;;;11.00;43.90;;;;;;1491777;39;20035;-49
2021/04/18 01:10:56;;;;;;;3.72;2.78;;;11.00;43.90;;;;;;1493427;39;20349;-53
2021/04/18 01:12:18;;;;;;;4.88;3.30;;;11.00;43.90;;;;;;1496153;39;20773;-49
2021/04/18 01:13:39;;;;;;;4.13;2.92;;;10.90;43.90;;;;;;1495981;39;20030;-51
2021/04/18 01:14:59;;;;;;;3.08;2.50;;;11.00;44.00;;;;;;1490873;39;20067;-51
2021/04/18 01:16:20;;;;;;;6.57;2.85;;;10.90;43.90;;;;;;1498629;39;20030;-53
2021/04/18 01:17:42;;;;;;;4.95;3.00;;;10.90;43.90;;;;;;1498214;39;20027;-53
2021/04/18 01:19:03;;;;;;;2.72;2.50;;;10.90;44.00;;;;;;1495327;39;20031;-53
2021/04/18 01:20:24;;;;;;;4.43;2.88;;;10.90;44.10;;;;;;1497645;39;20122;-49
2021/04/18 01:21:45;;;;;;;4.50;2.85;;;10.90;44.10;;;;;;1496511;39;20032;-53
2021/04/18 01:23:06;;;;;;;3.13;2.60;;;10.90;44.10;;;;;;1497908;39;20022;-55
2021/04/18 01:24:27;;;;;;;4.20;2.58;;;10.80;44.10;;;;;;1499092;39;20046;-53
2021/04/18 01:25:48;;;;;;;4.13;2.97;;;10.80;44.10;;;;;;1490787;39;20481;-51
2021/04/18 01:27:10;;;;;;;5.35;3.00;;;10.80;44.20;;;;;;1495952;39;20066;-51
2021/04/18 01:28:33;;;;;;;3.95;2.95;;;10.80;44.30;;;;;;1498888;39;20027;-50
2021/04/18 01:29:53;;;;;;;4.05;2.92;;;10.80;44.30;;;;;;1496559;39;20115;-50
2021/04/18 01:31:14;;;;;;;5.03;3.03;;;10.80;44.30;;;;;;1499203;39;20065;-52
2021/04/18 01:32:45;;;;;;;4.28;2.97;;;10.80;44.40;;;;;;1497272;39;20031;-54
2021/04/18 01:34:10;;;;;;;5.07;3.13;;;10.70;44.60;;;;;;1495348;39;20271;-50
2021/04/18 01:35:31;;;;;;;3.35;2.97;;;10.70;44.30;;;;;;1497826;39;20023;-50
2021/04/18 01:36:53;;;;;;;3.72;2.50;;;10.70;44.40;;;;;;1498799;39;20031;-53
2021/04/18 01:38:15;;;;;;;4.95;2.97;;;10.70;45.00;;;;;;1498167;39;20057;-49
2021/04/18 01:39:37;;;;;;;3.80;2.80;;;10.70;44.60;;;;;;1497877;39;20030;-53
2021/04/18 01:40:59;;;;;;;3.65;2.70;;;10.70;44.60;;;;;;1495507;39;20027;-50
2021/04/18 01:42:21;;;;;;;3.95;2.97;;;10.70;44.60;;;;;;1495910;39;20299;-53
2021/04/18 01:43:42;;;;;;;4.47;2.90;;;10.60;44.60;;;;;;1496180;39;20379;-51
2021/04/18 01:45:06;;;;;;;3.83;3.08;;;10.60;44.60;;;;;;1496924;39;20056;-54
2021/04/18 01:46:27;;;;;;;5.57;2.88;;;10.60;44.80;;;;;;1496168;39;20447;-49
2021/04/18 01:47:48;;;;;;;6.20;3.17;;;10.60;44.80;;;;;;1494413;39;20035;-52
2021/04/18 01:49:09;;;;;;;5.03;3.10;;;10.60;44.80;;;;;;1496294;39;20088;-53
2021/04/18 01:50:32;;;;;;;5.95;3.08;;;10.60;44.80;;;;;;1492038;39;20394;-53
2021/04/18 01:51:53;;;;;;;5.97;3.42;;;10.60;44.80;;;;;;1498576;39;20053;-53
2021/04/18 01:53:14;;;;;;;4.60;3.17;;;10.50;44.80;;;;;;1498674;39;20033;-54
2021/04/18 01:54:35;;;;;;;5.03;3.15;;;10.60;44.90;;;;;;1497354;39;20031;-50
2021/04/18 01:55:56;;;;;;;3.22;2.80;;;10.50;44.90;;;;;;1494289;39;20295;-51
2021/04/18 01:57:17;;;;;;;4.32;3.08;;;10.50;45.00;;;;;;1498457;39;20023;-52
2021/04/18 01:58:38;;;;;;;3.95;3.10;;;10.50;45.00;;;;;;1496476;39;20462;-54
2021/04/18 01:59:59;;;;;;;3.47;3.17;;;10.50;45.10;;;;;;1498645;39;20034;-53
2021/04/18 02:01:21;;;;;;;4.18;3.10;;;10.50;45.10;;;;;;1500149;39;20130;-53
2021/04/18 02:02:42;;;;;;;5.40;3.22;;;10.50;45.10;;;;;;1490664;39;20038;-50
2021/04/18 02:04:17;;;;;;;3.47;3.03;;;10.50;45.10;;;;;;1494536;39;20043;-49
2021/04/18 02:05:38;;;;;;;5.00;3.78;;;10.50;45.50;;;;;;1495776;39;20039;-54
2021/04/18 02:06:59;;;;;;;3.17;2.70;;;10.50;45.10;;;;;;1495842;39;20042;-52
2021/04/18 02:08:20;;;;;;;4.93;3.30;;;10.40;45.20;;;;;;1493567;39;20612;-52
2021/04/18 02:09:41;;;;;;;4.18;2.97;;;10.40;45.20;;;;;;1497889;39;20024;-53
2021/04/18 02:11:02;;;;;;;4.93;3.28;;;10.40;45.20;;;;;;1494860;39;20045;-55
2021/04/18 02:12:23;;;;;;;5.85;3.53;;;10.40;45.30;;;;;;1498510;39;20043;-54
2021/04/18 02:13:44;;;;;;;3.70;3.10;;;10.40;45.30;;;;;;1495020;39;20027;-51
2021/04/18 02:15:05;;;;;;;5.57;3.40;;;10.40;45.50;;;;;;1497668;39;20031;-51
2021/04/18 02:16:26;;;;;;;5.00;3.28;;;10.40;45.50;;;;;;1496344;39;20066;-55
2021/04/18 02:17:47;;;;;;;4.35;3.25;;;10.40;45.50;;;;;;1494725;39;20119;-53
2021/04/18 02:19:08;;;;;;;4.35;3.15;;;10.40;45.60;;;;;;1494642;39;20068;-54
2021/04/18 02:20:29;;;;;;;3.72;3.30;;;10.40;45.70;;;;;;1495998;39;20036;-52
2021/04/18 02:21:50;;;;;;;5.07;3.50;;;10.40;45.70;;;;;;1498457;39;20272;-48
2021/04/18 02:23:11;;;;;;;6.95;3.30;;;10.40;45.70;;;;;;1497728;39;20430;-52
2021/04/18 02:24:32;;;;;;;5.90;3.30;;;10.40;45.70;;;;;;1497867;39;20094;-52
2021/04/18 02:25:53;;;;;;;7.00;3.67;;;10.40;45.80;;;;;;1495902;39;20043;-50
2021/04/18 02:27:14;;;;;;;5.15;3.28;;;10.40;45.80;;;;;;1498157;39;20029;-52
2021/04/18 02:28:35;;;;;;;5.15;3.72;;;10.40;45.80;;;;;;1495842;39;20038;-50
2021/04/18 02:29:56;;;;;;;4.28;3.20;;;10.40;45.90;;;;;;1494486;39;20019;-50
2021/04/18 02:31:17;;;;;;;4.65;3.20;;;10.40;45.90;;;;;;1496147;39;20049;-51
2021/04/18 02:32:38;;;;;;;4.25;2.97;;;10.40;46.00;;;;;;1497927;39;20041;-51
2021/04/18 02:33:59;;;;;;;4.63;3.70;;;10.40;46.10;;;;;;1496672;39;20497;-50
2021/04/18 02:35:20;;;;;;;4.65;3.45;;;10.40;46.10;;;;;;1497809;39;20049;-53
2021/04/18 02:36:40;;;;;;;4.50;3.28;;;10.40;46.10;;;;;;1496811;39;20055;-52
2021/04/18 02:38:01;;;;;;;4.72;3.33;;;10.40;46.20;;;;;;1497701;39;20463;-52
2021/04/18 02:39:22;;;;;;;7.28;3.55;;;10.40;46.20;;;;;;1494815;39;20024;-49
2021/04/18 02:40:43;;;;;;;4.95;3.30;;;10.40;46.30;;;;;;1494943;39;20371;-49
2021/04/18 02:42:05;;;;;;;4.60;3.47;;;10.40;46.30;;;;;;1491715;39;20077;-51
2021/04/18 02:43:26;;;;;;;4.32;3.22;;;10.40;46.40;;;;;;1496823;39;20035;-54
2021/04/18 02:44:46;;;;;;;4.88;3.40;;;10.40;46.90;;;;;;1497801;39;20469;-51
2021/04/18 02:46:08;;;;;;;4.13;3.60;;;10.40;46.40;;;;;;1496268;39;20055;-51
2021/04/18 02:47:29;;;;;;;4.10;3.40;;;10.40;46.40;;;;;;1497805;39;20023;-52
2021/04/18 02:48:50;;;;;;;3.92;3.33;;;10.40;46.40;;;;;;1495840;39;20077;-53
2021/04/18 02:50:11;;;;;;;5.95;3.33;;;10.40;46.50;;;;;;1498352;39;20028;-49
2021/04/18 02:51:32;;;;;;;4.72;3.22;;;10.40;46.50;;;;;;1496068;39;20057;-51
2021/04/18 02:52:53;;;;;;;4.50;3.55;;;10.40;46.60;;;;;;1496257;39;20074;-54
2021/04/18 02:54:14;;;;;;;8.75;3.60;;;10.40;46.60;;;;;;1498295;39;20026;-54
2021/04/18 02:55:35;;;;;;;5.45;3.33;;;10.40;46.60;;;;;;1498785;39;20027;-53
2021/04/18 02:56:56;;;;;;;5.75;3.17;;;10.40;46.70;;;;;;1492698;39;20341;-49
2021/04/18 02:58:17;;;;;;;3.88;3.28;;;10.40;46.70;;;;;;1493486;39;20030;-52
2021/04/18 02:59:38;;;;;;;5.45;3.20;;;10.40;46.80;;;;;;1494106;39;20373;-52
2021/04/18 03:00:59;;;;;;;5.90;3.53;;;10.40;46.80;;;;;;1494929;39;20028;-51
2021/04/18 03:02:20;;;;;;;5.70;3.70;;;10.40;46.80;;;;;;1496638;39;20064;-52
2021/04/18 03:03:41;;;;;;;4.85;3.45;;;10.40;46.90;;;;;;1495258;39;20452;-50
2021/04/18 03:05:03;;;;;;;4.10;3.38;;;10.40;46.90;;;;;;1497326;39;20015;-51
2021/04/18 03:06:24;;;;;;;4.82;3.47;;;10.40;47.00;;;;;;1498736;39;20091;-55
2021/04/18 03:07:45;;;;;;;4.72;3.38;;;10.40;47.10;;;;;;1499167;39;20070;-52
2021/04/18 03:09:06;;;;;;;5.03;3.35;;;10.40;47.00;;;;;;1494256;39;20027;-49
2021/04/18 03:10:28;;;;;;;6.57;3.58;;;10.40;47.00;;;;;;1497825;39;20043;-50
2021/04/18 03:11:48;;;;;;;5.13;3.60;;;10.40;47.10;;;;;;1495879;39;20043;-52
2021/04/18 03:13:09;;;;;;;6.40;3.85;;;10.40;47.10;;;;;;1498260;39;20059;-53
2021/04/18 03:14:30;;;;;;;5.63;3.38;;;10.40;47.10;;;;;;1496898;39;20054;-53
2021/04/18 03:15:51;;;;;;;5.55;3.67;;;10.40;47.10;;;;;;1493722;39;20071;-53
2021/04/18 03:17:12;;;;;;;6.03;3.58;;;10.40;47.20;;;;;;1495927;39;20045;-50
2021/04/18 03:18:33;;;;;;;4.65;3.60;;;10.40;47.20;;;;;;1497847;39;20461;-51
2021/04/18 03:19:54;;;;;;;5.47;3.67;;;10.40;47.30;;;;;;1497104;39;20027;-51
2021/04/18 03:21:15;;;;;;;5.97;3.47;;;10.40;47.30;;;;;;1489669;39;20457;-54
2021/04/18 03:22:36;;;;;;;7.18;4.25;;;10.40;47.30;;;;;;1494760;39;20027;-51
2021/04/18 03:23:57;;;;;;;5.75;4.22;;;10.30;47.30;;;;;;1493617;39;20281;-53
2021/04/18 03:25:18;;;;;;;5.13;4.00;;;10.40;47.40;;;;;;1494566;39;20030;-52
2021/04/18 03:26:39;;;;;;;5.30;3.40;;;10.40;47.50;;;;;;1494756;39;20045;-53
2021/04/18 03:28:00;;;;;;;5.93;3.67;;;10.40;47.60;;;;;;1492143;39;20015;-52
2021/04/18 03:29:21;;;;;;;7.25;3.65;;;10.40;47.70;;;;;;1495422;39;20051;-52
2021/04/18 03:30:42;;;;;;;6.47;3.53;;;10.30;47.60;;;;;;1497804;39;20024;-54
2021/04/18 03:32:03;;;;;;;5.63;3.40;;;10.30;47.60;;;;;;1495569;39;20049;-51
2021/04/18 03:33:25;;;;;;;6.75;3.92;;;10.30;47.60;;;;;;1493483;39;20028;-51
2021/04/18 03:34:46;;;;;;;5.28;4.13;;;10.30;47.80;;;;;;1493870;39;20032;-51
2021/04/18 03:36:08;;;;;;;6.90;4.05;;;10.30;47.80;;;;;;1497317;39;20033;-51
2021/04/18 03:37:29;;;;;;;5.97;4.13;;;10.30;47.80;;;;;;1496233;39;20045;-52
2021/04/18 03:38:50;;;;;;;6.38;3.70;;;10.30;47.90;;;;;;1494381;39;20034;-51
2021/04/18 03:40:11;;;;;;;5.35;4.13;;;10.30;47.90;;;;;;1497010;39;20039;-49
2021/04/18 03:41:32;;;;;;;4.95;3.65;;;10.30;48.00;;;;;;1498386;39;20233;-51
2021/04/18 03:42:53;;;;;;;4.30;3.50;;;10.30;48.00;;;;;;1494241;39;20140;-53
2021/04/18 03:44:14;;;;;;;11.20;3.80;;;10.30;48.00;;;;;;1499110;39;20022;-51
2021/04/18 03:45:35;;;;;;;7.70;4.15;;;10.30;48.10;;;;;;1497558;39;20038;-51
2021/04/18 03:46:56;;;;;;;4.95;3.70;;;10.30;48.10;;;;;;1494510;39;20026;-51
2021/04/18 03:48:17;;;;;;;4.55;3.35;;;10.30;48.20;;;;;;1496965;39;20119;-51
2021/04/18 03:49:38;;;;;;;4.85;3.75;;;10.20;48.20;;;;;;1494666;39;20031;-53
2021/04/18 03:50:58;;;;;;;6.07;3.90;;;10.30;48.20;;;;;;1497667;39;20026;-50
2021/04/18 03:52:19;;;;;;;5.45;3.80;;;10.20;48.20;;;;;;1500017;39;20039;-52
2021/04/18 03:53:40;;;;;;;5.78;3.88;;;10.20;48.20;;;;;;1496581;39;20038;-53
2021/04/18 03:55:01;;;;;;;7.60;4.40;;;10.20;48.20;;;;;;1497240;39;20111;-50
2021/04/18 03:56:22;;;;;;;5.47;3.70;;;10.20;48.40;;;;;;1498403;39;20095;-49
2021/04/18 03:57:43;;;;;;;6.22;4.15;;;10.20;48.40;;;;;;1495747;39;20045;-52
2021/04/18 03:59:04;;;;;;;5.85;3.95;;;10.20;49.00;;;;;;1495840;39;20336;-48
2021/04/18 04:00:25;;;;;;;7.18;4.22;;;10.20;48.50;;;;;;1497087;39;20030;-50
2021/04/18 04:01:46;;;;;;;6.03;3.88;;;10.20;48.60;;;;;;1486391;39;20032;-50
2021/04/18 04:03:07;;;;;;;7.13;3.90;;;10.20;48.70;;;;;;1494053;39;20030;-51
2021/04/18 04:04:28;;;;;;;5.10;4.15;;;10.20;48.70;;;;;;1497249;39;20023;-50
2021/04/18 04:05:49;;;;;;;6.13;3.95;;;10.20;48.70;;;;;;1497419;39;20143;-52
2021/04/18 04:07:10;;;;;;;6.95;3.47;;;10.10;48.80;;;;;;1498606;39;20064;-54
2021/04/18 04:08:31;;;;;;;4.85;3.90;;;10.20;48.90;;;;;;1498194;39;20098;-53
2021/04/18 04:09:52;;;;;;;6.40;4.22;;;10.10;48.90;;;;;;1496203;39;20023;-50
2021/04/18 04:11:13;;;;;;;4.80;3.65;;;10.20;49.00;;;;;;1497608;39;20042;-53
2021/04/18 04:12:34;;;;;;;5.88;4.10;;;10.10;49.00;;;;;;1498212;39;20019;-52
2021/04/18 04:13:55;;;;;;;5.47;4.00;;;10.10;49.00;;;;;;1497454;39;20058;-52
2021/04/18 04:15:16;;;;;;;4.88;4.18;;;10.10;49.00;;;;;;1495514;39;20119;-53
2021/04/18 04:16:37;;;;;;;8.02;4.13;;;10.10;49.10;;;;;;1497878;39;20048;-50
2021/04/18 04:17:58;;;;;;;6.38;4.15;;;10.10;49.10;;;;;;1497672;39;20055;-50
2021/04/18 04:19:19;;;;;;;6.65;3.75;;;10.20;49.20;;;;;;1496462;39;20035;-52
2021/04/18 04:20:40;;;;;;;6.68;4.72;;;10.20;49.30;;;;;;1497074;39;20036;-53
2021/04/18 04:22:01;;;;;;;6.47;4.40;;;10.10;49.30;;;;;;1495043;39;20276;-52
2021/04/18 04:23:22;;;;;;;5.88;4.20;;;10.20;49.40;;;;;;1497641;39;20030;-52
2021/04/18 04:24:43;;;;;;;6.15;4.35;;;10.20;49.40;;;;;;1493892;39;20303;-52
2021/04/18 04:26:04;;;;;;;6.05;4.05;;;10.20;49.50;;;;;;1493092;39;20039;-54
2021/04/18 04:27:25;;;;;;;7.15;3.80;;;10.20;49.60;;;;;;1497114;39;20035;-55
2021/04/18 04:28:46;;;;;;;7.28;4.40;;;10.20;49.60;;;;;;1497382;39;20029;-50
2021/04/18 04:30:07;;;;;;;6.55;4.25;;;10.20;49.60;;;;;;1497020;39;20027;-53
2021/04/18 04:31:28;;;;;;;5.93;4.15;;;10.20;49.70;;;;;;1491883;39;20123;-53
2021/04/18 04:32:49;;;;;;;5.03;4.07;;;10.20;49.70;;;;;;1494588;39;20082;-55
2021/04/18 04:34:10;;;;;;;6.63;4.47;;;10.20;49.70;;;;;;1496274;39;20026;-53
2021/04/18 04:35:31;;;;;;;6.38;4.25;;;10.20;49.80;;;;;;1493044;39;20349;-55
2021/04/18 04:36:52;;;;;;;6.03;4.15;;;10.20;49.60;;;;;;1494207;39;20023;-53
2021/04/18 04:38:13;;;;;;;5.78;4.40;;;10.20;49.70;;;;;;1498133;39;20141;-53
2021/04/18 04:39:34;;;;;;;7.28;4.38;;;10.20;49.80;;;;;;1495564;39;20322;-53
2021/04/18 04:40:55;;;;;;;7.65;4.55;;;10.20;49.70;;;;;;1498373;39;20260;-52
2021/04/18 04:42:16;;;;;;;5.60;4.47;;;10.20;49.70;;;;;;1493668;39;20023;-53
2021/04/18 04:43:37;;;;;;;6.90;4.20;;;10.20;49.70;;;;;;1495133;39;20070;-51
2021/04/18 04:44:58;;;;;;;6.30;4.43;;;10.30;49.80;;;;;;1495248;39;20399;-54
2021/04/18 04:46:20;;;;;;;7.15;4.13;;;10.30;49.80;;;;;;1497568;39;20034;-52
2021/04/18 04:47:41;;;;;;;6.30;4.40;;;10.30;49.90;;;;;;1490650;39;20078;-53
2021/04/18 04:49:02;;;;;;;7.32;4.32;;;10.30;49.80;;;;;;1493920;39;20019;-52
2021/04/18 04:50:23;;;;;;;7.25;4.47;;;10.30;49.80;;;;;;1499538;39;20038;-52
2021/04/18 04:51:44;;;;;;;7.65;4.80;;;10.30;49.90;;;;;;1494456;39;20039;-54
2021/04/18 04:53:05;;;;;;;8.35;4.88;;;10.30;50.00;;;;;;1496667;39;20264;-55
2021/04/18 04:54:26;;;;;;;6.22;4.40;;;10.20;50.00;;;;;;1497114;39;20284;-53
2021/04/18 04:55:47;;;;;;;6.07;4.75;;;10.20;50.00;;;;;;1496943;39;20031;-53
2021/04/18 04:57:09;;;;;;;9.45;5.50;;;10.20;50.10;;;;;;1494389;39;20039;-54
2021/04/18 04:58:30;;;;;;;6.45;5.22;;;10.20;50.10;;;;;;1499297;39;20042;-53
2021/04/18 04:59:51;;;;;;;9.40;5.00;;;10.20;50.30;;;;;;1494654;39;20030;-51
2021/04/18 05:01:12;;;;;;;9.88;5.40;;;10.20;50.40;;;;;;1497735;39;20355;-51
2021/04/18 05:02:33;;;;;;;8.15;5.07;;;10.20;50.50;;;;;;1499440;39;20147;-54
2021/04/18 05:03:53;;;;;;;5.22;4.50;;;10.20;50.50;;;;;;1499314;39;20367;-53
2021/04/18 05:05:14;;;;;;;7.05;4.50;;;10.20;50.60;;;;;;1495435;39;20035;-53
2021/04/18 05:06:35;;;;;;;7.10;5.40;;;10.20;50.50;;;;;;1497217;39;20539;-52
2021/04/18 05:07:56;;;;;;;10.43;5.35;;;10.20;50.70;;;;;;1493041;39;20089;-54
2021/04/18 05:09:17;;;;;;;7.53;4.80;;;10.30;50.80;;;;;;1493247;39;20047;-54
2021/04/18 05:10:38;;;;;;;7.60;4.97;;;10.30;50.80;;;;;;1496816;39;20070;-54
2021/04/18 05:12:00;;;;;;;9.50;5.28;;;10.30;50.90;;;;;;1491320;39;20582;-52
2021/04/18 05:13:21;;;;;;;8.75;4.90;;;10.20;50.80;;;;;;1496689;39;20031;-52
2021/04/18 05:14:42;;;;;;;6.43;4.65;;;10.30;50.90;;;;;;1489792;39;20124;-52
2021/04/18 05:16:03;;;;;;;9.85;5.50;;;10.20;50.90;;;;;;1497113;39;20033;-55
2021/04/18 05:17:25;;;;;;;9.75;5.05;;;10.30;51.10;;;;;;1496436;39;20078;-52
2021/04/18 05:18:46;;;;;;;7.88;5.18;;;10.30;51.20;;;;;;1494515;39;20099;-53
2021/04/18 05:20:08;;;;;;;9.55;4.72;;;10.30;51.10;;;;;;1498645;39;20038;-52
2021/04/18 05:21:29;;;;;;;7.28;5.35;;;10.30;51.10;;;;;;1495329;39;20036;-52
2021/04/18 05:22:50;;;;;;;7.22;5.20;;;10.30;51.10;;;;;;1495140;39;20046;-54
2021/04/18 05:24:10;;;;;;;7.05;4.85;;;10.30;51.20;;;;;;1498020;39;20042;-53
2021/04/18 05:25:31;;;;;;;9.93;4.85;;;10.30;51.20;;;;;;1497537;39;20027;-54
2021/04/18 05:26:52;;;;;;;9.23;5.00;;;10.30;51.20;;;;;;1498520;39;20350;-51
2021/04/18 05:28:13;;;;;;;9.77;5.28;;;10.40;51.20;;;;;;1498600;39;20478;-52
2021/04/18 05:29:34;;;;;;;9.85;5.15;;;10.40;51.20;;;;;;1494266;39;20038;-52
2021/04/18 05:30:56;;;;;;;12.07;5.45;;;10.40;51.20;;;;;;1495066;39;20036;-53
2021/04/18 05:32:17;;;;;;;8.10;5.55;;;10.40;51.20;;;;;;1499045;39;20030;-51
2021/04/18 05:33:38;;;;;;;7.70;5.18;;;10.40;51.10;;;;;;1496861;39;20034;-51
2021/04/18 05:34:59;;;;;;;10.05;5.82;;;10.40;51.20;;;;;;1497453;39;20025;-53
2021/04/18 05:36:20;;;;;;;8.57;5.13;;;10.40;51.20;;;;;;1498154;39;20064;-54
2021/04/18 05:37:40;;;;;;;11.23;5.60;;;10.40;51.20;;;;;;1494237;39;20249;-53
2021/04/18 05:39:02;;;;;;;8.25;5.32;;;10.40;51.20;;;;;;1496990;39;20031;-52
2021/04/18 05:40:23;;;;;;;6.75;5.10;;;10.50;51.30;;;;;;1498259;39;20096;-50
2021/04/18 05:41:44;;;;;;;9.48;5.82;;;10.40;51.30;;;;;;1494870;39;20155;-56
2021/04/18 05:43:05;;;;;;;8.73;5.82;;;10.40;51.40;;;;;;1493414;39;20187;-51
2021/04/18 05:44:26;;;;;;;8.98;5.28;;;10.50;51.40;;;;;;1497305;39;20046;-54
2021/04/18 05:45:47;;;;;;;10.07;5.65;;;10.50;51.40;;;;;;1496012;39;20067;-51
2021/04/18 05:47:07;;;;;;;9.98;5.70;;;10.50;51.60;;;;;;1498320;39;20026;-54
2021/04/18 05:48:29;;;;;;;7.72;5.30;;;10.50;51.60;;;;;;1495696;39;20042;-53
2021/04/18 05:49:50;;;;;;;9.55;5.32;;;10.50;51.60;;;;;;1498492;39;20448;-53
2021/04/18 05:51:10;;;;;;;8.45;5.30;;;10.50;51.70;;;;;;1495364;39;20316;-50
2021/04/18 05:52:31;;;;;;;9.02;5.53;;;10.50;51.60;;;;;;1494376;39;20106;-54
2021/04/18 05:53:52;;;;;;;7.93;5.10;;;10.50;51.60;;;;;;1496984;39;20031;-51
2021/04/18 05:55:14;;;;;;;7.65;5.43;;;10.50;51.60;;;;;;1498584;39;20031;-53
2021/04/18 05:56:35;;;;;;;7.57;5.32;;;10.50;51.70;;;;;;1496182;39;20030;-52
2021/04/18 05:57:56;;;;;;;7.18;5.05;;;10.50;51.70;;;;;;1496865;39;20027;-50
2021/04/18 05:59:16;;;;;;;6.95;4.90;;;10.50;51.70;;;;;;1495287;39;20027;-53
2021/04/18 06:00:38;;;;;;;9.60;5.50;;;10.60;51.80;;;;;;1497059;39;20363;-50
2021/04/18 06:01:59;;;;;;;8.70;5.38;;;10.60;51.90;;;;;;1498280;39;20027;-52
2021/04/18 06:03:20;;;;;;;10.35;4.97;;;10.60;51.90;;;;;;1492419;39;20882;-51
2021/04/18 06:04:41;;;;;;;7.88;5.25;;;10.60;52.40;;;;;;1495097;39;20078;-54
2021/04/18 06:06:01;;;;;;;7.72;5.15;;;10.60;52.00;;;;;;1493994;39;20284;-53
2021/04/18 06:07:22;;;;;;;8.48;5.55;;;10.60;52.00;;;;;;1498485;39;20107;-53
2021/04/18 06:08:43;;;;;;;8.35;5.05;;;10.70;52.10;;;;;;1495781;39;20039;-53
2021/04/18 06:10:05;;;;;;;9.88;5.30;;;10.70;52.10;;;;;;1497747;39;20031;-59
2021/04/18 06:11:26;;;;;;;10.68;5.50;;;10.70;52.20;;;;;;1495464;39;20068;-53
2021/04/18 06:12:47;;;;;;;8.88;5.30;;;10.70;52.20;;;;;;1497948;39;20265;-50
2021/04/18 06:14:08;;;;;;;7.97;5.35;;;10.70;52.20;;;;;;1497510;39;20192;-54
2021/04/18 06:15:29;;;;;;;7.90;5.60;;;10.70;52.30;;;;;;1497505;39;20396;-52
2021/04/18 06:16:51;;;;;;;9.23;5.70;;;10.80;52.30;;;;;;1495616;39;20050;-54
2021/04/18 06:18:12;;;;;;;11.43;5.80;;;10.80;52.30;;;;;;1498996;39;20059;-53
2021/04/18 06:19:33;;;;;;;8.52;5.72;;;10.90;52.20;;;;;;1498728;39;20027;-52
2021/04/18 06:20:53;;;;;;;8.27;5.78;;;10.90;52.20;;;;;;1494461;39;20365;-51
2021/04/18 06:22:14;;;;;;;12.90;6.50;;;10.80;52.20;;;;;;1496194;39;20062;-52
2021/04/18 06:23:35;;;;;;;8.75;5.90;;;10.90;52.30;;;;;;1498954;39;20034;-53
2021/04/18 06:24:56;;;;;;;10.60;5.65;;;10.90;52.30;;;;;;1497401;39;20027;-50
2021/04/18 06:26:17;;;;;;;11.60;5.53;;;10.90;52.30;;;;;;1497023;39;20037;-52
2021/04/18 06:27:38;;;;;;;7.40;5.80;;;10.90;52.30;;;;;;1497730;39;20038;-55
2021/04/18 06:28:59;;;;;;;11.13;6.10;;;10.90;52.30;;;;;;1493697;39;20034;-49
2021/04/18 06:30:20;;;;;;;9.80;5.80;;;10.90;52.30;;;;;;1496834;39;20038;-55
2021/04/18 06:31:42;;;;;;;6.70;5.13;;;11.00;52.30;;;;;;1490944;39;20082;-55
2021/04/18 06:33:02;;;;;;;7.53;5.78;;;11.00;52.30;;;;;;1495526;39;20377;-53
2021/04/18 06:34:23;;;;;;;8.73;5.47;;;11.00;52.30;;;;;;1499039;39;20042;-51
2021/04/18 06:35:44;;;;;;;8.30;5.88;;;11.00;52.20;;;;;;1493222;39;20031;-50
2021/04/18 06:37:05;;;;;;;9.52;5.93;;;11.00;52.20;;;;;;1497782;39;20035;-55
2021/04/18 06:38:26;;;;;;;10.98;6.18;;;11.00;52.20;;;;;;1499375;39;20023;-53
2021/04/18 06:39:47;;;;;;;8.57;5.88;;;11.10;52.20;;;;;;1497170;39;20113;-52
2021/04/18 06:41:12;;;;;;;8.93;5.88;;;11.10;52.30;;;;;;1498305;39;20655;-56
2021/04/18 06:42:37;;;;;;;9.93;6.65;;;11.10;52.40;;;;;;1496968;39;20024;-52
2021/04/18 06:43:58;;;;;;;10.77;6.60;;;11.10;52.50;;;;;;1495462;39;20348;-54
2021/04/18 06:45:19;;;;;;;7.32;5.47;;;11.20;52.40;;;;;;1497514;39;20471;-53
2021/04/18 06:46:40;;;;;;;7.63;5.82;;;11.10;52.40;;;;;;1496762;39;20379;-54
2021/04/18 06:48:02;;;;;;;8.43;5.90;;;11.20;52.50;;;;;;1492167;39;20023;-53
2021/04/18 06:49:25;;;;;;;9.57;6.00;;;11.20;52.50;;;;;;1492813;39;20036;-50
2021/04/18 06:50:47;;;;;;;11.27;6.45;;;11.20;52.40;;;;;;1495633;39;20279;-52
2021/04/18 06:52:11;;;;;;;8.50;5.45;;;11.20;52.50;;;;;;1494533;39;20035;-51
2021/04/18 06:53:32;;;;;;;9.15;6.30;;;11.30;52.50;;;;;;1494148;39;20440;-56
2021/04/18 06:54:52;;;;;;;9.77;5.93;;;11.30;52.40;;;;;;1494837;39;20075;-55
2021/04/18 06:56:14;;;;;;;8.23;5.45;;;11.30;52.50;;;;;;1491362;39;20015;-54
2021/04/18 06:57:35;;;;;;;8.93;6.25;;;11.40;52.50;;;;;;1495347;39;20047;-54
2021/04/18 06:59:00;;;;;;;8.60;6.20;;;11.40;52.50;;;;;;1495428;39;20612;-55
2021/04/18 07:00:22;;;;;;;8.02;5.78;;;11.40;52.60;;;;;;1493316;39;20054;-54
2021/04/18 07:01:43;;;;;;;8.10;5.63;;;11.40;52.40;;;;;;1496015;39;20032;-54